Main page
METAR-TAF:

METAR-TAF

Airports :

Georgetown Municipal Airport

Georgetown, Texas, United States

latitude: 30-41N, longitude: 097-41W, elevation: 787 ft

Current weather observation

The report was made 41 minutes ago, at 05:56 UTC
Wind 12 mph from the Northwest
Temperature 39°F
Humidity 87%
Pressure 30.08 in. Hg
Visibility: 10 miles
Few clouds at a height of 3500 ft
Broken clouds at a height of 4500 ft
Overcast at a height of 5500 ft
light rain

METAR: KGTU 230556Z AUTO 32010KT 10SM -RA FEW035 BKN045 OVC055 04/02 A3008 RMK AO2 SLP187 P0007 60023 T00440022 10172 20044 401940044 50027

Time: 00:37 (06:37 UTC)


TAF: missing

Weather observations and forecasts of more than 4000 airports (METAR and TAF reports).

The available stations are represented by yellow and red dots on the map.

Hover mouse over dot to see the name of the station.

Then click to see weather observations and forecasts.

To change the map : click on the green buttons with a black cross to zoom in, on the green button with a dash to zoom out, or on the green arrows for adjacent maps.


METAR-TAF: